Time;durP1;ratioP1;P1;durP2;ratioP2;P2;SDS_P1;SDS_P2;PMS_P1;PMS_P2;Temp;Humidity;BMP_temperature;BMP_pressure;BME280_temperature;BME280_humidity;BME280_pressure;Samples;Min_cycle;Max_cycle;Signal;HPM_P1;HPM_P2
2021/12/09 09:29:42;;;;;;;3.73;3.00;;;;;;;4.40;100.00;97876.50;5107644;28;20556;-81
2021/12/09 09:32:12;;;;;;;5.67;3.60;;;;;;;5.07;100.00;97889.38;5088643;28;38982;-82
2021/12/09 09:34:40;;;;;;;4.43;2.87;;;;;;;5.62;100.00;97888.88;5106062;28;42695;-82
2021/12/09 09:37:08;;;;;;;4.27;3.73;;;;;;;5.96;100.00;97870.22;5089642;28;42702;-82
2021/12/09 09:39:38;;;;;;;4.40;3.13;;;;;;;6.36;100.00;97878.34;5089946;28;42112;-83
2021/12/09 09:42:30;;;;;;;3.77;2.43;;;;;;;6.72;98.90;97876.06;5089336;28;39739;-81
2021/12/09 09:44:59;;;;;;;4.30;3.03;;;;;;;7.11;95.52;97892.91;5089038;28;41061;-81
2021/12/09 09:47:29;;;;;;;4.90;3.03;;;;;;;7.31;92.15;97895.09;5107305;28;43476;-82
2021/12/09 09:49:58;;;;;;;4.77;2.67;;;;;;;7.58;90.64;97892.47;5088489;28;41124;-81
2021/12/09 09:52:26;;;;;;;2.63;1.90;;;;;;;7.93;87.82;97903.28;5106480;28;40065;-80
2021/12/09 09:54:59;;;;;;;3.47;2.80;;;;;;;8.26;85.75;97889.63;5104210;27;40635;-81
2021/12/09 09:57:26;;;;;;;4.23;3.20;;;;;;;8.91;82.98;97900.88;5094849;28;42482;-82
2021/12/09 09:59:54;;;;;;;2.97;2.30;;;;;;;9.28;79.65;97906.19;5089893;28;42091;-82
2021/12/09 10:02:23;;;;;;;2.47;2.20;;;;;;;9.35;77.46;97899.50;5105844;28;39909;-82
2021/12/09 10:05:00;;;;;;;3.53;2.50;;;;;;;9.32;77.44;97907.66;5106122;28;41673;-82
2021/12/09 10:07:35;;;;;;;5.47;3.03;;;;;;;9.43;76.32;97909.50;5106038;28;42852;-81
2021/12/09 10:10:08;;;;;;;4.13;2.53;;;;;;;9.50;74.08;97901.03;5088961;28;42270;-84
2021/12/09 10:12:53;;;;;;;3.87;2.30;;;;;;;10.69;72.59;97907.88;5105376;28;40014;-81
2021/12/09 10:15:33;;;;;;;2.87;2.17;;;;;;;11.04;68.49;97932.44;5105030;28;40555;-81
2021/12/09 10:21:29;;;;;;;3.80;1.73;;;;;;;12.07;64.92;97920.50;5087853;28;42786;-84
2021/12/09 10:24:18;;;;;;;4.87;2.20;;;;;;;11.25;66.71;97958.22;5083379;28;39085;-87
2021/12/09 10:27:09;;;;;;;4.03;2.00;;;;;;;10.61;66.68;97963.25;5050291;28;40917;-85
2021/12/09 10:30:05;;;;;;;2.63;2.00;;;;;;;10.03;67.24;97946.44;5029044;28;43697;-85
2021/12/09 10:36:25;;;;;;;2.03;1.83;;;;;;;8.89;67.60;97902.81;5099635;27;38324;-84
2021/12/09 10:39:28;;;;;;;2.27;1.93;;;;;;;8.56;69.01;97878.78;5126462;27;40943;-84
2021/12/09 10:42:20;;;;;;;3.53;1.80;;;;;;;8.85;69.55;97935.66;5107569;27;42999;-86
2021/12/09 10:54:10;;;;;;;2.23;1.83;;;;;;;10.35;65.63;97939.59;5111298;28;41697;-84
2021/12/09 10:56:38;;;;;;;3.70;2.10;;;;;;;10.58;64.48;97942.28;5115414;27;42340;-83
2021/12/09 10:59:27;;;;;;;2.50;2.20;;;;;;;10.41;64.79;97946.22;5115246;27;39155;-86
2021/12/09 11:02:06;;;;;;;5.20;2.83;;;;;;;9.72;65.59;97887.91;5111861;28;40893;-85
2021/12/09 11:08:49;;;;;;;2.27;2.07;;;;;;;9.64;64.99;97895.56;5095853;27;42281;-88
2021/12/09 11:11:19;;;;;;;2.17;1.97;;;;;;;9.44;64.85;97893.53;5071089;28;40233;-87
2021/12/09 11:14:12;;;;;;;4.20;1.83;;;;;;;9.48;65.21;97929.38;5055739;28;40806;-84
2021/12/09 11:17:06;;;;;;;3.87;2.10;;;;;;;8.90;64.78;97891.28;5039571;28;42170;-86
2021/12/09 11:19:55;;;;;;;3.90;2.70;;;;;;;8.89;66.19;97925.72;5056332;28;41088;-84
2021/12/09 11:22:38;;;;;;;3.70;1.53;;;;;;;8.70;67.60;97910.34;5054843;28;38764;-84
2021/12/09 11:25:33;;;;;;;7.80;2.40;;;;;;;8.63;67.49;97911.72;5038670;28;40934;-88
2021/12/09 11:28:30;;;;;;;3.80;2.13;;;;;;;8.40;68.28;97880.81;5038057;28;41777;-85
2021/12/09 11:31:05;;;;;;;3.33;1.80;;;;;;;8.62;68.75;97897.69;5120920;27;41284;-79
2021/12/09 11:33:39;;;;;;;6.27;1.90;;;;;;;8.59;68.70;97891.75;5131954;27;40173;-82
2021/12/09 11:36:14;;;;;;;3.40;2.90;;;;;;;8.53;69.31;97892.22;5131170;27;40993;-82
2021/12/09 11:39:09;;;;;;;2.10;1.90;;;;;;;8.47;68.97;97897.91;5111122;27;41901;-83
2021/12/09 11:41:40;;;;;;;2.63;2.10;;;;;;;8.34;69.67;97900.53;5132322;27;42077;-80
2021/12/09 11:44:09;;;;;;;3.40;2.13;;;;;;;8.20;69.20;97912.00;5132885;27;40370;-83
2021/12/09 11:46:38;;;;;;;5.50;2.60;;;;;;;7.91;69.04;97894.69;5114253;27;40689;-81
2021/12/09 11:49:09;;;;;;;2.53;2.00;;;;;;;7.78;69.60;97888.53;5113673;27;41628;-82
2021/12/09 11:51:37;;;;;;;3.40;2.80;;;;;;;7.79;70.16;97903.41;5114547;27;41075;-82
2021/12/09 11:54:08;;;;;;;6.17;2.23;;;;;;;7.73;70.58;97898.53;5131450;27;40258;-83
2021/12/09 11:56:43;;;;;;;2.27;2.03;;;;;;;7.46;70.84;97867.78;5131963;27;40726;-82
2021/12/09 12:11:07;;;;;;;2.93;2.20;;;;;;;7.68;72.24;97882.16;5132465;27;41573;-84
2021/12/09 12:11:16;;;;;;;2.87;2.53;;;;;;;7.83;71.41;97902.22;5131762;27;42909;-85
2021/12/09 12:13:50;;;;;;;4.43;2.63;;;;;;;7.83;71.53;97896.97;5132938;27;42091;-84
2021/12/09 12:16:35;;;;;;;3.37;2.60;;;;;;;7.67;71.37;97862.03;5113869;27;40176;-83
2021/12/09 12:19:11;;;;;;;4.07;2.63;;;;;;;7.83;71.25;97867.97;5132382;27;42589;-84
2021/12/09 12:28:04;;;;;;;2.90;2.30;;;;;;;8.14;69.72;97901.03;5130350;27;40350;-81
2021/12/09 12:39:59;;;;;;;4.73;2.90;;;;;;;8.21;68.79;97887.31;5108977;27;40186;-86
2021/12/09 12:42:44;;;;;;;7.23;3.00;;;;;;;8.32;68.55;97885.75;5130947;27;41730;-84
2021/12/09 12:45:23;;;;;;;2.63;2.20;;;;;;;8.21;69.19;97875.91;5110988;27;42556;-83
2021/12/09 12:47:57;;;;;;;4.40;2.90;;;;;;;8.21;68.61;97884.66;5131034;27;42024;-85
2021/12/09 12:50:25;;;;;;;4.83;2.57;;;;;;;8.05;68.99;97859.44;5113499;27;38798;-86
2021/12/09 12:53:34;;;;;;;6.27;2.77;;;;;;;8.19;68.91;97883.94;5114461;27;40831;-84
2021/12/09 12:56:14;;;;;;;3.40;3.10;;;;;;;8.16;69.29;97884.13;5112957;27;42169;-84
2021/12/09 12:59:20;;;;;;;2.87;2.17;;;;;;;8.09;69.60;97885.50;5130109;27;42060;-83
2021/12/09 13:05:47;;;;;;;3.10;2.10;;;;;;;7.90;69.15;97892.97;5112819;27;41010;-86
2021/12/09 13:16:41;;;;;;;5.47;2.53;;;;;;;7.44;69.82;97887.25;5129152;27;40571;-85
2021/12/09 13:19:32;;;;;;;4.20;2.87;;;;;;;7.35;70.20;97875.53;5112109;27;43307;-84
2021/12/09 13:22:02;;;;;;;3.43;2.70;;;;;;;7.33;70.50;97882.69;5113209;27;42973;-84
2021/12/09 13:24:49;;;;;;;4.10;2.40;;;;;;;7.41;70.57;97895.38;5108884;28;39164;-85
2021/12/09 13:27:49;;;;;;;4.67;2.03;;;;;;;7.29;70.41;97880.38;5112044;27;41812;-84
2021/12/09 13:30:39;;;;;;;3.17;2.27;;;;;;;7.33;70.77;97887.09;5112737;27;42771;-82
2021/12/09 13:33:40;;;;;;;5.17;2.50;;;;;;;7.22;69.89;97890.44;5112256;27;42632;-82
2021/12/09 13:36:29;;;;;;;2.83;2.57;;;;;;;7.24;70.29;97888.56;5112117;27;41468;-84
2021/12/09 13:47:33;;;;;;;4.70;2.53;;;;;;;7.26;71.04;97905.09;5104742;28;39078;-82
2021/12/09 13:50:22;;;;;;;6.07;3.17;;;;;;;7.18;71.30;97908.22;5110045;28;40241;-84
2021/12/09 13:55:36;;;;;;;3.20;1.87;;;;;;;7.01;71.33;97912.88;5113202;27;41745;-85
2021/12/09 13:58:08;;;;;;;3.73;2.70;;;;;;;6.89;71.24;97888.19;5112569;27;39038;-84
2021/12/09 14:00:39;;;;;;;4.40;2.87;;;;;;;6.83;71.52;97899.91;5131044;27;41705;-82
2021/12/09 14:03:09;;;;;;;3.97;2.67;;;;;;;6.85;71.46;97924.34;5112203;27;41583;-84
2021/12/09 14:05:44;;;;;;;4.90;2.20;;;;;;;6.64;71.85;97898.53;5129136;27;42371;-85
2021/12/09 14:08:12;;;;;;;4.03;2.67;;;;;;;6.73;72.01;97919.84;5128650;27;39932;-82
2021/12/09 14:10:44;;;;;;;4.07;2.83;;;;;;;6.73;72.03;97927.75;5129933;27;42063;-85
2021/12/09 14:13:17;;;;;;;5.23;2.80;;;;;;;6.65;72.04;97921.28;5108319;28;43942;-82
2021/12/09 14:16:00;;;;;;;2.67;2.20;;;;;;;6.52;72.32;97913.28;5094242;28;41438;-85
2021/12/09 14:18:39;;;;;;;3.37;2.50;;;;;;;6.56;72.27;97935.81;5117666;27;39288;-85
2021/12/09 14:21:07;;;;;;;4.37;1.93;;;;;;;6.52;71.58;97957.16;5115129;27;41112;-83
2021/12/09 14:23:35;;;;;;;5.10;2.67;;;;;;;6.45;71.73;97948.78;5116097;27;42183;-85
2021/12/09 14:26:04;;;;;;;3.00;2.33;;;;;;;6.35;71.86;97937.13;5132977;27;41678;-83
2021/12/09 14:28:35;;;;;;;3.93;2.37;;;;;;;6.40;71.24;97953.50;5112029;28;39996;-84
2021/12/09 14:31:04;;;;;;;2.83;2.63;;;;;;;6.23;71.58;97940.50;5106140;27;40778;-85
2021/12/09 14:33:32;;;;;;;2.03;1.83;;;;;;;6.30;71.92;97941.84;5132881;27;42903;-84
2021/12/09 14:36:06;;;;;;;4.50;2.57;;;;;;;6.23;72.04;97941.34;5115952;27;41726;-85
2021/12/09 14:38:36;;;;;;;4.43;2.90;;;;;;;6.32;71.94;97968.84;5112696;27;39872;-84
2021/12/09 14:41:17;;;;;;;4.90;2.37;;;;;;;6.25;72.29;97960.50;5150116;27;42151;-82
2021/12/09 14:43:48;;;;;;;6.90;3.20;;;;;;;5.85;72.06;97906.78;5132535;27;42832;-83
2021/12/09 14:46:24;;;;;;;4.80;2.60;;;;;;;6.09;71.86;97955.28;5110245;27;41297;-85
2021/12/09 14:48:52;;;;;;;6.23;2.90;;;;;;;6.10;72.27;97966.66;5128445;27;39710;-83
2021/12/09 14:51:22;;;;;;;3.97;3.10;;;;;;;5.78;72.26;97923.84;5119393;27;41719;-86
2021/12/09 14:53:52;;;;;;;8.03;2.87;;;;;;;6.12;72.21;97976.16;5128886;27;41815;-84
2021/12/09 14:56:24;;;;;;;5.20;2.97;;;;;;;5.95;71.87;97957.88;5113475;27;42148;-85
2021/12/09 14:59:14;;;;;;;5.07;2.60;;;;;;;5.99;72.42;97959.41;5130107;27;39274;-83
2021/12/09 15:01:42;;;;;;;3.83;2.30;;;;;;;6.09;72.72;97981.56;5106711;27;42067;-84
2021/12/09 15:04:15;;;;;;;3.37;2.20;;;;;;;5.98;72.47;97973.47;5114240;27;41642;-84
2021/12/09 15:06:55;;;;;;;6.20;3.47;;;;;;;6.01;72.61;97975.94;5110992;27;41120;-85
2021/12/09 15:09:23;;;;;;;5.40;2.90;;;;;;;6.05;72.74;97980.09;5131654;27;39344;-84
2021/12/09 15:11:53;;;;;;;5.77;2.70;;;;;;;5.90;72.88;97962.56;5114323;27;41677;-84
2021/12/09 15:14:25;;;;;;;4.17;2.30;;;;;;;5.90;73.01;97966.97;5113409;27;41589;-83
2021/12/09 15:17:09;;;;;;;3.30;2.40;;;;;;;5.97;72.92;97987.53;5114661;27;41626;-85
2021/12/09 15:19:38;;;;;;;4.57;3.07;;;;;;;5.83;72.79;97974.31;5135602;27;40033;-82
2021/12/09 15:22:11;;;;;;;4.37;2.57;;;;;;;5.91;72.95;97989.69;5132840;27;41250;-82
2021/12/09 15:24:58;;;;;;;4.57;2.20;;;;;;;5.90;73.16;97990.63;5132284;27;41677;-83
2021/12/09 15:27:26;;;;;;;6.73;2.80;;;;;;;5.86;72.82;97984.66;5131862;27;43159;-86
2021/12/09 15:29:55;;;;;;;3.30;2.30;;;;;;;5.85;72.57;97993.47;5114723;27;39087;-84
2021/12/09 15:32:22;;;;;;;3.30;2.13;;;;;;;5.83;72.93;97990.09;5131771;27;41611;-84
2021/12/09 15:34:50;;;;;;;3.43;2.80;;;;;;;5.75;73.08;97981.81;5137615;27;42857;-85
2021/12/09 15:37:21;;;;;;;3.93;2.77;;;;;;;5.83;73.08;97999.75;5131136;27;41102;-83
2021/12/09 15:39:50;;;;;;;4.77;2.50;;;;;;;5.83;73.32;98003.22;5138666;27;38885;-85
2021/12/09 15:42:23;;;;;;;4.13;2.63;;;;;;;5.84;72.84;98001.44;5141092;27;41562;-82
2021/12/09 15:44:52;;;;;;;4.73;2.77;;;;;;;5.76;73.19;97994.00;5141586;27;41929;-85
2021/12/09 15:47:24;;;;;;;3.23;1.90;;;;;;;5.73;72.98;97988.91;5130937;27;41805;-82
2021/12/09 15:49:54;;;;;;;4.33;3.10;;;;;;;5.75;73.14;97998.41;5138894;27;40074;-82
2021/12/09 15:52:28;;;;;;;5.27;2.30;;;;;;;5.72;73.11;97992.47;5146075;27;40700;-83
2021/12/09 15:54:59;;;;;;;3.73;1.93;;;;;;;5.83;73.32;98005.00;5130019;27;41697;-84
2021/12/09 15:57:30;;;;;;;5.37;2.40;;;;;;;5.73;72.54;97988.91;5130819;27;42466;-85
2021/12/09 15:59:58;;;;;;;5.67;2.10;;;;;;;5.79;73.04;97999.09;5122621;27;40460;-83
2021/12/09 16:02:29;;;;;;;2.03;1.83;;;;;;;5.57;72.94;97961.81;5139356;27;41754;-83
2021/12/09 16:04:57;;;;;;;2.77;2.03;;;;;;;5.77;73.24;97995.69;5130276;27;41903;-84
2021/12/09 16:07:26;;;;;;;2.97;2.10;;;;;;;5.69;73.28;97987.38;5117102;27;40359;-84
2021/12/09 16:09:56;;;;;;;3.70;2.10;;;;;;;5.68;73.20;97985.72;5125313;27;40174;-83
